createdAt,value
2018-09-26T00:00:48.492Z,7.50
2018-09-26T00:03:27.382Z,7.50
2018-09-26T00:05:56.622Z,7.50
2018-09-26T00:08:25.473Z,7.50
2018-09-26T00:10:54.451Z,7.60
2018-09-26T00:13:23.265Z,7.60
2018-09-26T00:15:52.117Z,7.70
2018-09-26T00:18:21.127Z,7.70
2018-09-26T00:20:50.768Z,7.70
2018-09-26T00:23:19.748Z,7.60
2018-09-26T00:25:48.690Z,7.60
2018-09-26T00:28:17.573Z,7.50
2018-09-26T00:30:46.430Z,7.50
2018-09-26T00:33:15.895Z,7.50
2018-09-26T00:35:45.293Z,7.40
2018-09-26T00:38:14.201Z,7.40
2018-09-26T00:40:43.101Z,7.40
2018-09-26T00:43:11.966Z,7.50
2018-09-26T00:45:40.786Z,7.60
2018-09-26T00:48:10.338Z,7.70
2018-09-26T00:50:40.131Z,7.70
2018-09-26T00:53:09.040Z,7.70
2018-09-26T00:55:38.478Z,7.70
2018-09-26T00:58:08.089Z,7.60
2018-09-26T01:00:37.304Z,7.50
2018-09-26T01:03:06.597Z,7.60
2018-09-26T01:05:36.052Z,7.60
2018-09-26T01:08:05.760Z,7.50
2018-09-26T01:10:35.142Z,7.50
2018-09-26T01:13:04.324Z,7.50
2018-09-26T01:15:33.287Z,7.30
2018-09-26T01:18:02.804Z,7.10
2018-09-26T01:20:31.717Z,6.80
2018-09-26T01:23:00.633Z,6.90
2018-09-26T01:25:29.514Z,7.00
2018-09-26T01:27:58.688Z,6.90
2018-09-26T01:30:28.216Z,6.90
2018-09-26T01:32:57.180Z,6.90
2018-09-26T01:35:26.122Z,6.90
2018-09-26T01:37:54.943Z,6.90
2018-09-26T01:40:23.924Z,7.00
2018-09-26T01:42:52.936Z,7.00
2018-09-26T01:45:21.893Z,6.90
2018-09-26T01:47:51.067Z,6.90
2018-09-26T01:50:19.997Z,6.90
2018-09-26T01:52:48.816Z,6.80
2018-09-26T01:55:17.754Z,6.90
2018-09-26T01:57:46.540Z,6.80
2018-09-26T02:00:15.367Z,6.70
2018-09-26T02:02:44.172Z,6.80
2018-09-26T02:05:13.080Z,6.80
2018-09-26T02:07:41.923Z,6.60
2018-09-26T02:10:10.816Z,6.60
2018-09-26T02:12:39.599Z,6.70
2018-09-26T02:15:08.857Z,6.80
2018-09-26T02:17:37.720Z,6.80
2018-09-26T02:20:06.808Z,6.50
2018-09-26T02:22:35.572Z,6.60
2018-09-26T02:25:04.807Z,6.70
2018-09-26T02:27:33.696Z,6.80
2018-09-26T02:30:02.589Z,6.70
2018-09-26T02:32:31.447Z,6.70
2018-09-26T02:35:00.272Z,6.60
2018-09-26T02:37:29.160Z,6.70
2018-09-26T02:39:58.044Z,6.70
2018-09-26T02:42:26.943Z,6.60
2018-09-26T02:44:55.827Z,6.60
2018-09-26T02:47:24.748Z,6.30
2018-09-26T02:49:53.560Z,6.20
2018-09-26T02:52:22.375Z,6.20
2018-09-26T02:54:51.232Z,6.10
2018-09-26T02:57:20.044Z,6.20
2018-09-26T02:59:48.908Z,6.00
2018-09-26T03:02:17.750Z,5.90
2018-09-26T03:04:46.653Z,5.80
2018-09-26T03:07:15.547Z,6.00
2018-09-26T03:09:44.432Z,6.00
2018-09-26T03:12:19.463Z,6.10
2018-09-26T03:14:48.324Z,6.10
2018-09-26T03:17:17.125Z,5.90
2018-09-26T03:19:45.915Z,5.90
2018-09-26T03:22:14.997Z,5.80
2018-09-26T03:24:43.926Z,5.80
2018-09-26T03:27:12.808Z,5.70
2018-09-26T03:29:41.721Z,5.60
2018-09-26T03:32:10.574Z,5.60
2018-09-26T03:34:39.449Z,5.60
2018-09-26T03:37:09.298Z,5.70
2018-09-26T03:39:38.186Z,5.70
2018-09-26T03:42:07.146Z,5.80
2018-09-26T03:44:36.041Z,5.80
2018-09-26T03:47:05.074Z,5.90
2018-09-26T03:49:34.251Z,6.00
2018-09-26T03:52:03.157Z,6.00
2018-09-26T03:54:32.343Z,6.00
2018-09-26T03:57:01.237Z,5.80
2018-09-26T03:59:30.109Z,5.90
2018-09-26T04:01:59.268Z,5.80
2018-09-26T04:04:28.118Z,5.80
2018-09-26T04:06:56.936Z,5.90
2018-09-26T04:09:25.861Z,6.00
2018-09-26T04:11:54.673Z,6.00
2018-09-26T04:14:23.577Z,5.80
2018-09-26T04:16:52.469Z,5.80
2018-09-26T04:19:21.420Z,5.80
2018-09-26T04:21:50.290Z,5.80
2018-09-26T04:24:19.162Z,5.80
2018-09-26T04:26:48.225Z,5.90
2018-09-26T04:29:17.121Z,5.80
2018-09-26T04:31:46.024Z,5.80
2018-09-26T04:34:14.952Z,5.90
2018-09-26T04:36:43.763Z,5.90
2018-09-26T04:39:13.446Z,5.90
2018-09-26T04:41:42.340Z,5.80
2018-09-26T04:44:11.182Z,5.80
2018-09-26T04:46:40.074Z,5.70
2018-09-26T04:49:09.078Z,5.70
2018-09-26T04:51:37.900Z,5.70
2018-09-26T04:54:07.345Z,5.70
2018-09-26T04:56:37.164Z,5.50
2018-09-26T04:59:06.280Z,5.70
2018-09-26T05:01:35.966Z,5.60
2018-09-26T05:04:04.932Z,5.40
2018-09-26T05:06:33.768Z,5.70
2018-09-26T05:09:02.905Z,5.90
2018-09-26T05:11:31.784Z,5.90
2018-09-26T05:14:00.622Z,6.00
2018-09-26T05:16:29.604Z,6.00
2018-09-26T05:18:58.519Z,5.90
2018-09-26T05:21:28.412Z,5.90
2018-09-26T05:23:57.269Z,6.10
2018-09-26T05:26:26.181Z,6.10
2018-09-26T05:28:55.049Z,5.80
2018-09-26T05:31:24.215Z,5.80
2018-09-26T05:33:53.057Z,5.60
2018-09-26T05:36:22.416Z,5.70
2018-09-26T05:38:51.336Z,5.60
2018-09-26T05:41:20.902Z,5.70
2018-09-26T05:43:52.689Z,5.60
2018-09-26T05:46:21.551Z,5.60
2018-09-26T05:48:50.722Z,5.70
2018-09-26T05:51:19.604Z,5.80
2018-09-26T05:53:48.476Z,5.80
2018-09-26T05:56:17.666Z,5.80
2018-09-26T05:58:46.526Z,5.80
2018-09-26T06:01:15.445Z,5.80
2018-09-26T06:03:44.301Z,5.80
2018-09-26T06:06:13.203Z,5.80
2018-09-26T06:08:42.032Z,5.80
2018-09-26T06:11:10.993Z,5.90
2018-09-26T06:13:40.067Z,5.70
2018-09-26T06:16:09.072Z,5.80
2018-09-26T06:18:39.526Z,5.80
2018-09-26T06:21:10.360Z,5.70
2018-09-26T06:23:39.419Z,5.80
2018-09-26T06:26:08.414Z,5.70
2018-09-26T06:28:37.953Z,5.80
2018-09-26T06:31:06.802Z,5.90
2018-09-26T06:33:36.405Z,6.10
2018-09-26T06:36:05.703Z,6.20
2018-09-26T06:38:34.598Z,6.30
2018-09-26T06:41:03.492Z,6.50
2018-09-26T06:43:32.981Z,6.40
2018-09-26T06:46:02.895Z,6.50
2018-09-26T06:48:31.900Z,6.50
2018-09-26T06:51:00.836Z,6.50
2018-09-26T06:53:29.692Z,6.50
2018-09-26T06:55:58.600Z,6.70
2018-09-26T06:58:27.521Z,6.90
2018-09-26T07:00:57.885Z,6.90
2018-09-26T07:03:26.813Z,6.90
2018-09-26T07:05:56.704Z,7.10
2018-09-26T07:08:25.628Z,7.30
2018-09-26T07:10:54.437Z,7.40
2018-09-26T07:13:23.304Z,7.40
2018-09-26T07:15:52.209Z,7.60
2018-09-26T07:18:21.048Z,7.90
2018-09-26T07:20:50.144Z,8.20
2018-09-26T07:23:19.073Z,8.50
2018-09-26T07:25:48.546Z,8.90
2018-09-26T07:28:17.511Z,9.10
2018-09-26T07:30:46.698Z,9.20
2018-09-26T07:33:16.020Z,9.30
2018-09-26T07:35:45.022Z,9.50
2018-09-26T07:38:14.844Z,9.30
2018-09-26T07:40:43.757Z,9.40
2018-09-26T07:43:13.711Z,9.70
2018-09-26T07:45:44.324Z,9.80
2018-09-26T07:48:13.161Z,9.90
2018-09-26T07:50:42.157Z,10.20
2018-09-26T07:53:11.224Z,10.30
2018-09-26T07:55:41.070Z,10.30
2018-09-26T07:58:10.031Z,10.20
2018-09-26T08:00:38.888Z,10.10
2018-09-26T08:03:08.862Z,9.90
2018-09-26T08:05:38.701Z,10.00
2018-09-26T08:08:07.562Z,10.60
2018-09-26T08:10:36.456Z,10.90
2018-09-26T08:13:05.407Z,11.10
2018-09-26T08:15:34.284Z,11.60
2018-09-26T08:18:03.271Z,12.10
2018-09-26T08:20:32.198Z,12.50
2018-09-26T08:23:01.636Z,12.80
2018-09-26T08:25:31.157Z,13.20
2018-09-26T08:28:00.639Z,13.50
2018-09-26T08:30:29.497Z,13.40
2018-09-26T08:32:58.365Z,13.10
2018-09-26T08:35:27.213Z,13.20
2018-09-26T08:37:56.200Z,13.00
2018-09-26T08:40:25.585Z,13.10
2018-09-26T08:42:54.478Z,13.40
2018-09-26T08:45:24.489Z,13.60
2018-09-26T08:47:53.778Z,13.70
2018-09-26T08:50:22.687Z,13.60
2018-09-26T08:52:51.698Z,13.80
2018-09-26T08:55:21.591Z,14.00
2018-09-26T08:58:01.148Z,14.30
2018-09-26T09:07:38.992Z,14.60
2018-09-26T09:10:07.956Z,15.00
2018-09-26T09:12:36.841Z,15.10
2018-09-26T09:15:05.838Z,15.20
2018-09-26T09:17:34.704Z,15.10
2018-09-26T09:20:03.774Z,15.00
2018-09-26T09:22:32.936Z,14.90
2018-09-26T09:25:02.165Z,14.90
2018-09-26T09:27:31.190Z,15.00
2018-09-26T09:30:00.097Z,15.00
2018-09-26T09:32:28.873Z,14.70
2018-09-26T09:34:57.887Z,14.90
2018-09-26T09:37:26.856Z,15.20
2018-09-26T09:39:56.827Z,15.60
2018-09-26T09:42:25.769Z,15.80
2018-09-26T09:44:54.724Z,15.70
2018-09-26T09:47:23.812Z,15.50
2018-09-26T09:49:53.045Z,15.50
2018-09-26T09:52:22.315Z,15.60
2018-09-26T09:54:51.276Z,15.60
2018-09-26T09:57:20.304Z,15.50
2018-09-26T09:59:49.645Z,15.70
2018-09-26T10:02:18.648Z,15.80
2018-09-26T10:04:47.648Z,16.00
2018-09-26T10:07:16.624Z,16.20
2018-09-26T10:09:45.513Z,16.30
2018-09-26T10:12:14.476Z,16.40
2018-09-26T10:14:43.367Z,16.50
2018-09-26T10:17:12.301Z,16.50
2018-09-26T10:19:41.318Z,16.50
2018-09-26T10:22:12.084Z,16.50
2018-09-26T10:24:41.131Z,16.70
2018-09-26T10:27:10.174Z,16.90
2018-09-26T10:29:39.196Z,17.10
2018-09-26T10:32:08.203Z,17.40
2018-09-26T10:34:37.248Z,17.90
2018-09-26T10:37:06.175Z,18.20
2018-09-26T10:39:35.038Z,18.80
2018-09-26T10:42:04.126Z,19.30
2018-09-26T10:44:33.047Z,20.10
2018-09-26T10:47:02.102Z,20.70
2018-09-26T10:49:31.107Z,21.20
2018-09-26T10:51:59.984Z,21.60
2018-09-26T10:54:28.985Z,21.90
2018-09-26T10:56:58.092Z,22.00
2018-09-26T10:59:27.062Z,21.80
2018-09-26T11:01:56.330Z,21.70
2018-09-26T11:04:25.527Z,21.60
2018-09-26T11:06:54.563Z,21.60
2018-09-26T11:09:23.494Z,21.40
2018-09-26T11:11:52.653Z,20.70
2018-09-26T11:14:21.663Z,20.40
2018-09-26T11:16:50.573Z,19.80
2018-09-26T11:19:19.545Z,19.70
2018-09-26T11:21:48.505Z,19.30
2018-09-26T11:24:17.616Z,19.00
2018-09-26T11:26:46.574Z,18.80
2018-09-26T11:29:15.552Z,18.60
2018-09-26T11:31:45.452Z,18.50
2018-09-26T11:34:14.427Z,18.40
2018-09-26T11:36:43.383Z,18.30
2018-09-26T11:39:12.484Z,18.10
2018-09-26T11:41:41.397Z,18.10
2018-09-26T11:44:10.383Z,18.10
2018-09-26T11:46:39.231Z,18.00
2018-09-26T11:49:08.159Z,18.00
2018-09-26T11:51:37.353Z,17.90
2018-09-26T11:54:06.397Z,17.90
2018-09-26T11:56:35.245Z,17.90
2018-09-26T11:59:04.680Z,17.80
2018-09-26T12:01:33.682Z,17.70
2018-09-26T12:04:02.561Z,17.70
2018-09-26T12:06:31.827Z,17.60
2018-09-26T12:09:00.761Z,17.40
2018-09-26T12:11:29.705Z,17.30
2018-09-26T12:13:58.901Z,17.40
2018-09-26T12:16:27.877Z,17.40
2018-09-26T12:18:56.852Z,17.30
2018-09-26T12:21:30.537Z,17.20
2018-09-26T12:23:54.667Z,17.30
2018-09-26T12:26:23.645Z,17.40
2018-09-26T12:28:52.496Z,17.50
2018-09-26T12:31:21.612Z,17.60
2018-09-26T12:33:50.489Z,17.60
2018-09-26T12:36:22.107Z,17.40
2018-09-26T12:38:51.769Z,17.50
2018-09-26T12:41:20.929Z,17.50
2018-09-26T12:43:49.820Z,17.50
2018-09-26T12:46:19.202Z,17.50
2018-09-26T12:48:48.080Z,17.50
2018-09-26T12:51:17.047Z,17.50
2018-09-26T12:53:46.569Z,17.40
2018-09-26T12:56:16.250Z,17.30
2018-09-26T12:58:46.440Z,17.20
2018-09-26T13:01:16.336Z,17.20
2018-09-26T13:03:45.340Z,17.30
2018-09-26T13:06:14.278Z,17.40
2018-09-26T13:08:43.788Z,17.30
2018-09-26T13:11:12.783Z,17.40
2018-09-26T13:13:41.588Z,17.40
2018-09-26T13:16:11.438Z,17.40
2018-09-26T13:18:41.313Z,17.50
2018-09-26T13:21:10.369Z,17.50
2018-09-26T13:23:39.317Z,17.60
2018-09-26T13:26:08.341Z,17.50
2018-09-26T13:28:37.286Z,17.50
2018-09-26T13:31:06.453Z,17.50
2018-09-26T13:33:35.802Z,17.50
2018-09-26T13:36:04.885Z,17.40
2018-09-26T13:38:34.357Z,17.50
2018-09-26T13:41:03.267Z,17.40
2018-09-26T13:43:32.116Z,17.40
2018-09-26T13:46:01.300Z,17.30
2018-09-26T13:48:30.277Z,17.30
2018-09-26T13:50:59.282Z,17.20
2018-09-26T13:53:28.201Z,17.40
2018-09-26T13:55:57.192Z,17.40
2018-09-26T13:58:26.117Z,17.40
2018-09-26T14:00:55.020Z,17.40
2018-09-26T14:03:24.156Z,17.20
2018-09-26T14:05:53.060Z,17.40
2018-09-26T14:08:22.136Z,17.40
2018-09-26T14:10:51.328Z,17.40
2018-09-26T14:13:20.518Z,17.50
2018-09-26T14:15:49.517Z,17.50
2018-09-26T14:18:18.594Z,17.60
2018-09-26T14:20:47.594Z,17.60
2018-09-26T14:23:16.610Z,17.60
2018-09-26T14:25:45.574Z,17.60
2018-09-26T14:28:14.545Z,17.60
2018-09-26T14:30:43.626Z,17.70
2018-09-26T14:33:12.525Z,17.70
2018-09-26T14:35:42.158Z,17.70
2018-09-26T14:38:12.186Z,17.70
2018-09-26T14:40:41.052Z,17.70
2018-09-26T14:43:10.149Z,17.90
2018-09-26T14:45:39.182Z,17.80
2018-09-26T14:48:08.195Z,17.70
2018-09-26T14:50:37.198Z,17.60
2018-09-26T14:53:06.145Z,17.70
2018-09-26T14:55:34.957Z,17.70
2018-09-26T14:58:06.100Z,17.60
2018-09-26T15:00:35.413Z,17.70
2018-09-26T15:03:04.451Z,17.60
2018-09-26T15:05:33.529Z,17.60
2018-09-26T15:08:02.641Z,17.50
2018-09-26T15:10:31.557Z,17.60
2018-09-26T15:13:00.472Z,17.60
2018-09-26T15:15:29.433Z,17.60
2018-09-26T15:17:58.404Z,17.60
2018-09-26T15:20:27.444Z,17.60
2018-09-26T15:22:56.431Z,17.60
2018-09-26T15:25:25.353Z,17.60
2018-09-26T15:27:54.732Z,17.60
2018-09-26T15:30:23.762Z,17.70
2018-09-26T15:32:52.772Z,17.70
2018-09-26T15:35:21.802Z,17.70
2018-09-26T15:37:51.969Z,17.70
2018-09-26T15:40:21.667Z,17.70
2018-09-26T15:42:50.655Z,17.70
2018-09-26T15:45:19.609Z,17.80
2018-09-26T15:47:48.577Z,17.80
2018-09-26T15:50:17.703Z,17.70
2018-09-26T15:52:48.007Z,17.70
2018-09-26T15:55:17.194Z,17.70
2018-09-26T15:57:46.161Z,17.70
2018-09-26T16:00:15.261Z,17.70
2018-09-26T16:02:44.605Z,17.70
2018-09-26T16:05:14.559Z,17.70
2018-09-26T16:07:44.516Z,17.60
2018-09-26T16:10:13.568Z,17.70
2018-09-26T16:12:42.526Z,17.60
2018-09-26T16:15:11.501Z,17.60
2018-09-26T16:17:40.837Z,17.60
2018-09-26T16:20:09.944Z,17.60
2018-09-26T16:22:38.913Z,17.60
2018-09-26T16:25:08.109Z,17.50
2018-09-26T16:27:37.189Z,17.50
2018-09-26T16:30:06.508Z,17.50
2018-09-26T16:32:35.610Z,17.40
2018-09-26T16:35:04.660Z,17.40
2018-09-26T16:37:33.534Z,17.30
2018-09-26T16:40:02.570Z,17.20
2018-09-26T16:42:32.126Z,17.20
2018-09-26T16:45:01.203Z,17.20
2018-09-26T16:47:30.248Z,17.10
2018-09-26T16:49:59.605Z,17.10
2018-09-26T16:52:29.030Z,17.00
2018-09-26T16:54:58.118Z,17.00
2018-09-26T16:57:27.205Z,16.90
2018-09-26T16:59:56.233Z,16.90
2018-09-26T17:02:25.180Z,16.80
2018-09-26T17:04:54.245Z,16.80
2018-09-26T17:07:23.400Z,16.70
2018-09-26T17:09:52.473Z,16.60
2018-09-26T17:12:21.578Z,16.60
2018-09-26T17:14:50.481Z,16.60
2018-09-26T17:17:19.327Z,16.50
2018-09-26T17:19:48.249Z,16.50
2018-09-26T17:22:17.342Z,16.40
2018-09-26T17:24:46.289Z,16.30
2018-09-26T17:27:15.193Z,16.30
2018-09-26T17:29:44.180Z,16.20
2018-09-26T17:32:13.079Z,16.20
2018-09-26T17:34:42.155Z,16.20
2018-09-26T17:37:11.141Z,16.20
2018-09-26T17:39:40.087Z,16.20
2018-09-26T17:42:09.179Z,16.00
2018-09-26T17:44:38.036Z,16.00
2018-09-26T17:47:07.335Z,15.90
2018-09-26T17:49:36.249Z,15.90
2018-09-26T17:52:05.200Z,15.80
2018-09-26T17:54:34.603Z,15.80
2018-09-26T17:57:03.528Z,15.80
2018-09-26T17:59:32.477Z,15.80
2018-09-26T18:02:01.876Z,15.80
2018-09-26T18:04:31.213Z,15.70
2018-09-26T18:07:00.201Z,15.70
2018-09-26T18:09:29.203Z,15.70
2018-09-26T18:11:58.094Z,15.70
2018-09-26T18:14:27.255Z,15.70
2018-09-26T18:16:56.263Z,15.70
2018-09-26T18:19:25.257Z,15.60
2018-09-26T18:21:54.349Z,15.50
2018-09-26T18:24:25.731Z,15.50
2018-09-26T18:26:54.694Z,15.60
2018-09-26T18:29:23.689Z,15.60
2018-09-26T18:31:52.596Z,15.50
2018-09-26T18:34:21.558Z,15.50
2018-09-26T18:36:50.607Z,15.50
2018-09-26T18:39:19.787Z,15.50
2018-09-26T18:41:48.799Z,15.40
2018-09-26T18:44:17.782Z,15.50
2018-09-26T18:46:46.797Z,15.40
2018-09-26T18:49:15.639Z,15.40
2018-09-26T18:51:44.562Z,15.40
2018-09-26T18:54:13.596Z,15.40
2018-09-26T18:56:42.622Z,15.30
2018-09-26T18:59:11.815Z,15.20
2018-09-26T19:01:40.683Z,15.30
2018-09-26T19:04:09.599Z,15.30
2018-09-26T19:06:38.528Z,15.30
2018-09-26T19:09:10.566Z,15.20
2018-09-26T19:11:39.509Z,15.20
2018-09-26T19:14:08.390Z,15.20
2018-09-26T19:16:37.261Z,15.20
2018-09-26T19:19:06.491Z,15.20
2018-09-26T19:21:35.459Z,15.20
2018-09-26T19:24:04.200Z,15.20
2018-09-26T19:26:33.076Z,15.30
2018-09-26T19:29:02.133Z,15.20
2018-09-26T19:31:31.024Z,15.20
2018-09-26T19:33:59.950Z,15.20
2018-09-26T19:36:28.888Z,15.20
2018-09-26T19:38:58.280Z,15.20
2018-09-26T19:41:27.164Z,15.10
2018-09-26T19:43:57.539Z,15.10
2018-09-26T19:46:26.355Z,15.00
2018-09-26T19:48:55.305Z,15.10
2018-09-26T19:51:24.565Z,15.10
2018-09-26T19:53:53.457Z,15.10
2018-09-26T19:56:22.524Z,15.20
2018-09-26T19:58:51.325Z,15.20
2018-09-26T20:01:20.424Z,15.10
2018-09-26T20:03:49.412Z,15.10
2018-09-26T20:06:18.295Z,15.10
2018-09-26T20:08:47.313Z,15.10
2018-09-26T20:11:16.344Z,15.00
2018-09-26T20:13:45.232Z,14.90
2018-09-26T20:16:14.200Z,15.00
2018-09-26T20:18:43.117Z,14.90
2018-09-26T20:21:11.968Z,15.00
2018-09-26T20:23:40.897Z,15.00
2018-09-26T20:26:09.913Z,15.00
2018-09-26T20:28:38.776Z,15.00
2018-09-26T20:31:07.904Z,14.90
2018-09-26T20:33:36.841Z,14.80
2018-09-26T20:36:05.874Z,14.90
2018-09-26T20:38:34.758Z,15.00
2018-09-26T20:41:03.777Z,14.80
2018-09-26T20:43:32.641Z,14.80
2018-09-26T20:46:01.395Z,14.70
2018-09-26T20:48:30.298Z,14.70
2018-09-26T20:50:59.161Z,14.70
2018-09-26T20:53:28.068Z,14.60
2018-09-26T20:55:57.402Z,14.70
2018-09-26T20:58:26.248Z,14.60
2018-09-26T21:00:55.139Z,14.50
2018-09-26T21:03:24.080Z,14.50
2018-09-26T21:05:53.020Z,14.40
2018-09-26T21:08:22.095Z,14.40
2018-09-26T21:10:51.016Z,14.50
2018-09-26T21:13:19.929Z,14.40
2018-09-26T21:15:48.888Z,14.30
2018-09-26T21:18:17.826Z,14.30
2018-09-26T21:20:46.653Z,14.20
2018-09-26T21:23:15.742Z,14.10
2018-09-26T21:25:44.598Z,14.20
2018-09-26T21:28:13.547Z,14.10
2018-09-26T21:30:42.630Z,14.10
2018-09-26T21:33:11.510Z,14.10
2018-09-26T21:35:40.475Z,14.00
2018-09-26T21:38:09.390Z,14.00
2018-09-26T21:40:38.207Z,14.00
2018-09-26T21:43:07.188Z,14.00
2018-09-26T21:45:36.128Z,14.00
2018-09-26T21:48:04.989Z,14.00
2018-09-26T21:50:33.992Z,13.90
2018-09-26T21:53:02.953Z,13.90
2018-09-26T21:55:32.097Z,13.80
2018-09-26T21:58:01.068Z,14.00
2018-09-26T22:00:29.934Z,13.90
2018-09-26T22:02:58.816Z,13.90
2018-09-26T22:05:27.629Z,13.90
2018-09-26T22:07:56.821Z,14.00
2018-09-26T22:10:25.721Z,13.90
2018-09-26T22:12:54.604Z,13.90
2018-09-26T22:15:24.249Z,13.90
2018-09-26T22:17:54.285Z,13.90
2018-09-26T22:20:23.192Z,14.00
2018-09-26T22:22:52.096Z,14.00
2018-09-26T22:25:21.070Z,13.90
2018-09-26T22:27:50.651Z,13.90
2018-09-26T22:30:19.601Z,13.80
2018-09-26T22:32:48.460Z,13.80
2018-09-26T22:35:17.263Z,13.80
2018-09-26T22:37:46.140Z,13.70
2018-09-26T22:40:14.953Z,13.80
2018-09-26T22:42:43.883Z,13.80
2018-09-26T22:45:12.741Z,13.80
2018-09-26T22:47:41.653Z,13.80
2018-09-26T22:50:10.831Z,13.70
2018-09-26T22:52:39.680Z,13.70
2018-09-26T22:55:08.512Z,13.60
2018-09-26T22:57:37.687Z,13.60
2018-09-26T23:00:06.568Z,13.50
2018-09-26T23:02:35.386Z,13.50
2018-09-26T23:05:04.313Z,13.50
2018-09-26T23:07:33.272Z,13.50
2018-09-26T23:10:02.255Z,13.40
2018-09-26T23:12:31.152Z,13.40
2018-09-26T23:14:59.988Z,13.40
2018-09-26T23:17:28.876Z,13.30
2018-09-26T23:19:57.663Z,13.20
2018-09-26T23:22:26.504Z,13.20
2018-09-26T23:24:55.361Z,13.20
2018-09-26T23:27:24.949Z,13.10
2018-09-26T23:29:53.704Z,13.00
2018-09-26T23:32:22.528Z,13.10
2018-09-26T23:34:52.377Z,13.10
2018-09-26T23:37:21.210Z,13.10
2018-09-26T23:39:50.042Z,13.00
2018-09-26T23:42:18.860Z,13.00
2018-09-26T23:44:47.738Z,13.00
2018-09-26T23:47:16.720Z,13.00
2018-09-26T23:49:45.533Z,13.00
2018-09-26T23:52:14.444Z,13.00
2018-09-26T23:54:43.402Z,13.00
2018-09-26T23:57:12.277Z,12.90
2018-09-26T23:59:41.098Z,12.90
